sensor_id;sensor_type;location;lat;lon;timestamp;P1;durP1;ratioP1;P2;durP2;ratioP2
16193;SDS011;8204;53.582;10.080;2024-03-07T00:02:14;28.00;;;24.97;;
16193;SDS011;8204;53.582;10.080;2024-03-07T00:04:39;26.30;;;22.33;;
16193;SDS011;8204;53.582;10.080;2024-03-07T00:07:05;27.93;;;23.17;;
16193;SDS011;8204;53.582;10.080;2024-03-07T00:09:32;27.50;;;23.40;;
16193;SDS011;8204;53.582;10.080;2024-03-07T00:11:58;26.07;;;23.50;;
16193;SDS011;8204;53.582;10.080;2024-03-07T00:14:24;27.07;;;23.73;;
16193;SDS011;8204;53.582;10.080;2024-03-07T00:16:55;24.87;;;22.27;;
16193;SDS011;8204;53.582;10.080;2024-03-07T00:19:22;29.80;;;23.80;;
16193;SDS011;8204;53.582;10.080;2024-03-07T00:21:52;23.80;;;21.30;;
16193;SDS011;8204;53.582;10.080;2024-03-07T00:24:18;30.50;;;23.57;;
16193;SDS011;8204;53.582;10.080;2024-03-07T00:26:44;24.53;;;22.03;;
16193;SDS011;8204;53.582;10.080;2024-03-07T00:29:09;29.33;;;21.83;;
16193;SDS011;8204;53.582;10.080;2024-03-07T00:31:35;23.90;;;21.30;;
16193;SDS011;8204;53.582;10.080;2024-03-07T00:34:01;26.73;;;21.70;;
16193;SDS011;8204;53.582;10.080;2024-03-07T00:36:26;26.03;;;21.67;;
16193;SDS011;8204;53.582;10.080;2024-03-07T00:42:07;25.67;;;22.60;;
16193;SDS011;8204;53.582;10.080;2024-03-07T00:44:32;28.27;;;24.50;;
16193;SDS011;8204;53.582;10.080;2024-03-07T00:46:59;31.80;;;21.90;;
16193;SDS011;8204;53.582;10.080;2024-03-07T00:49:25;29.07;;;23.37;;
16193;SDS011;8204;53.582;10.080;2024-03-07T00:51:50;31.87;;;23.20;;
16193;SDS011;8204;53.582;10.080;2024-03-07T00:54:16;28.60;;;22.33;;
16193;SDS011;8204;53.582;10.080;2024-03-07T00:56:42;31.03;;;24.57;;
16193;SDS011;8204;53.582;10.080;2024-03-07T00:59:07;36.33;;;24.27;;
16193;SDS011;8204;53.582;10.080;2024-03-07T01:01:32;30.60;;;22.30;;
16193;SDS011;8204;53.582;10.080;2024-03-07T01:04:00;32.40;;;22.17;;
16193;SDS011;8204;53.582;10.080;2024-03-07T01:06:26;26.57;;;22.23;;
16193;SDS011;8204;53.582;10.080;2024-03-07T01:08:52;28.30;;;23.53;;
16193;SDS011;8204;53.582;10.080;2024-03-07T01:11:18;25.33;;;20.73;;
16193;SDS011;8204;53.582;10.080;2024-03-07T01:13:44;33.40;;;24.10;;
16193;SDS011;8204;53.582;10.080;2024-03-07T01:16:10;25.53;;;21.90;;
16193;SDS011;8204;53.582;10.080;2024-03-07T01:18:36;27.37;;;23.00;;
16193;SDS011;8204;53.582;10.080;2024-03-07T01:21:05;32.83;;;24.47;;
16193;SDS011;8204;53.582;10.080;2024-03-07T01:23:31;26.33;;;23.50;;
16193;SDS011;8204;53.582;10.080;2024-03-07T01:25:57;35.20;;;24.17;;
16193;SDS011;8204;53.582;10.080;2024-03-07T01:28:24;26.00;;;22.57;;
16193;SDS011;8204;53.582;10.080;2024-03-07T01:30:50;29.17;;;23.83;;
16193;SDS011;8204;53.582;10.080;2024-03-07T01:33:18;30.30;;;22.10;;
16193;SDS011;8204;53.582;10.080;2024-03-07T01:35:44;26.60;;;22.83;;
16193;SDS011;8204;53.582;10.080;2024-03-07T01:38:10;35.07;;;26.53;;
16193;SDS011;8204;53.582;10.080;2024-03-07T01:40:39;29.17;;;23.27;;
16193;SDS011;8204;53.582;10.080;2024-03-07T01:43:06;30.73;;;24.83;;
16193;SDS011;8204;53.582;10.080;2024-03-07T01:45:32;37.80;;;26.60;;
16193;SDS011;8204;53.582;10.080;2024-03-07T01:47:57;35.07;;;23.83;;
16193;SDS011;8204;53.582;10.080;2024-03-07T01:50:23;28.43;;;23.03;;
16193;SDS011;8204;53.582;10.080;2024-03-07T01:52:48;27.20;;;22.83;;
16193;SDS011;8204;53.582;10.080;2024-03-07T01:55:21;38.00;;;25.27;;
16193;SDS011;8204;53.582;10.080;2024-03-07T01:57:47;29.83;;;23.83;;
16193;SDS011;8204;53.582;10.080;2024-03-07T02:00:12;29.10;;;24.90;;
16193;SDS011;8204;53.582;10.080;2024-03-07T02:02:38;26.03;;;23.23;;
16193;SDS011;8204;53.582;10.080;2024-03-07T02:05:04;34.23;;;24.33;;
16193;SDS011;8204;53.582;10.080;2024-03-07T02:07:31;26.30;;;23.67;;
16193;SDS011;8204;53.582;10.080;2024-03-07T02:10:00;26.97;;;24.07;;
16193;SDS011;8204;53.582;10.080;2024-03-07T02:12:28;29.33;;;25.43;;
16193;SDS011;8204;53.582;10.080;2024-03-07T02:14:55;30.53;;;27.03;;
16193;SDS011;8204;53.582;10.080;2024-03-07T02:17:22;34.87;;;24.30;;
16193;SDS011;8204;53.582;10.080;2024-03-07T02:19:49;30.67;;;24.90;;
16193;SDS011;8204;53.582;10.080;2024-03-07T02:22:14;30.10;;;25.70;;
16193;SDS011;8204;53.582;10.080;2024-03-07T02:24:39;28.20;;;25.00;;
16193;SDS011;8204;53.582;10.080;2024-03-07T02:27:05;29.03;;;25.93;;
16193;SDS011;8204;53.582;10.080;2024-03-07T02:29:30;30.20;;;25.40;;
16193;SDS011;8204;53.582;10.080;2024-03-07T02:31:55;29.50;;;26.00;;
16193;SDS011;8204;53.582;10.080;2024-03-07T02:34:21;29.37;;;26.27;;
16193;SDS011;8204;53.582;10.080;2024-03-07T02:36:47;31.07;;;25.50;;
16193;SDS011;8204;53.582;10.080;2024-03-07T02:39:12;24.93;;;22.37;;
16193;SDS011;8204;53.582;10.080;2024-03-07T02:41:38;26.67;;;23.47;;
16193;SDS011;8204;53.582;10.080;2024-03-07T02:44:03;29.83;;;24.37;;
16193;SDS011;8204;53.582;10.080;2024-03-07T02:46:29;31.37;;;22.97;;
16193;SDS011;8204;53.582;10.080;2024-03-07T02:48:54;29.03;;;25.90;;
16193;SDS011;8204;53.582;10.080;2024-03-07T02:51:19;33.87;;;23.93;;
16193;SDS011;8204;53.582;10.080;2024-03-07T02:53:45;32.77;;;22.77;;
16193;SDS011;8204;53.582;10.080;2024-03-07T02:56:10;29.10;;;23.87;;
16193;SDS011;8204;53.582;10.080;2024-03-07T02:58:37;35.77;;;23.20;;
16193;SDS011;8204;53.582;10.080;2024-03-07T03:01:02;27.33;;;22.70;;
16193;SDS011;8204;53.582;10.080;2024-03-07T03:03:31;32.03;;;23.63;;
16193;SDS011;8204;53.582;10.080;2024-03-07T03:05:56;26.80;;;21.87;;
16193;SDS011;8204;53.582;10.080;2024-03-07T03:08:23;23.97;;;21.57;;
16193;SDS011;8204;53.582;10.080;2024-03-07T03:10:49;26.93;;;22.33;;
16193;SDS011;8204;53.582;10.080;2024-03-07T03:13:16;28.87;;;22.93;;
16193;SDS011;8204;53.582;10.080;2024-03-07T03:15:43;33.93;;;23.27;;
16193;SDS011;8204;53.582;10.080;2024-03-07T03:18:08;27.33;;;20.97;;
16193;SDS011;8204;53.582;10.080;2024-03-07T03:20:34;24.30;;;20.50;;
16193;SDS011;8204;53.582;10.080;2024-03-07T03:23:04;27.30;;;21.90;;
16193;SDS011;8204;53.582;10.080;2024-03-07T03:25:31;24.83;;;21.17;;
16193;SDS011;8204;53.582;10.080;2024-03-07T03:28:02;24.67;;;19.90;;
16193;SDS011;8204;53.582;10.080;2024-03-07T03:30:31;25.70;;;20.10;;
16193;SDS011;8204;53.582;10.080;2024-03-07T03:32:58;25.87;;;20.40;;
16193;SDS011;8204;53.582;10.080;2024-03-07T03:35:23;23.07;;;20.57;;
16193;SDS011;8204;53.582;10.080;2024-03-07T03:37:50;25.50;;;20.73;;
16193;SDS011;8204;53.582;10.080;2024-03-07T03:40:15;28.23;;;20.20;;
16193;SDS011;8204;53.582;10.080;2024-03-07T03:42:41;27.97;;;21.90;;
16193;SDS011;8204;53.582;10.080;2024-03-07T03:45:08;28.43;;;20.93;;
16193;SDS011;8204;53.582;10.080;2024-03-07T03:47:36;25.80;;;20.70;;
16193;SDS011;8204;53.582;10.080;2024-03-07T03:50:06;27.17;;;20.37;;
16193;SDS011;8204;53.582;10.080;2024-03-07T03:52:33;26.53;;;21.63;;
16193;SDS011;8204;53.582;10.080;2024-03-07T03:55:02;23.57;;;20.40;;
16193;SDS011;8204;53.582;10.080;2024-03-07T03:57:29;24.10;;;20.80;;
16193;SDS011;8204;53.582;10.080;2024-03-07T03:59:56;23.17;;;20.50;;
16193;SDS011;8204;53.582;10.080;2024-03-07T04:02:22;21.13;;;18.77;;
16193;SDS011;8204;53.582;10.080;2024-03-07T04:04:48;22.10;;;19.50;;
16193;SDS011;8204;53.582;10.080;2024-03-07T04:07:14;29.83;;;19.33;;
16193;SDS011;8204;53.582;10.080;2024-03-07T04:09:43;23.80;;;20.80;;
16193;SDS011;8204;53.582;10.080;2024-03-07T04:12:13;23.90;;;18.17;;
16193;SDS011;8204;53.582;10.080;2024-03-07T04:14:39;23.33;;;18.97;;
16193;SDS011;8204;53.582;10.080;2024-03-07T04:17:09;23.30;;;19.20;;
16193;SDS011;8204;53.582;10.080;2024-03-07T04:19:37;25.80;;;19.80;;
16193;SDS011;8204;53.582;10.080;2024-03-07T04:22:04;23.97;;;21.40;;
16193;SDS011;8204;53.582;10.080;2024-03-07T04:24:33;23.53;;;19.57;;
16193;SDS011;8204;53.582;10.080;2024-03-07T04:27:01;24.30;;;21.20;;
16193;SDS011;8204;53.582;10.080;2024-03-07T04:29:31;20.90;;;18.63;;
16193;SDS011;8204;53.582;10.080;2024-03-07T04:31:57;31.87;;;20.43;;
16193;SDS011;8204;53.582;10.080;2024-03-07T04:34:23;22.80;;;20.43;;
16193;SDS011;8204;53.582;10.080;2024-03-07T04:36:48;19.43;;;17.50;;
16193;SDS011;8204;53.582;10.080;2024-03-07T04:39:14;24.17;;;19.07;;
16193;SDS011;8204;53.582;10.080;2024-03-07T04:41:51;21.87;;;19.43;;
16193;SDS011;8204;53.582;10.080;2024-03-07T04:44:18;22.73;;;19.23;;
16193;SDS011;8204;53.582;10.080;2024-03-07T04:46:47;26.83;;;17.97;;
16193;SDS011;8204;53.582;10.080;2024-03-07T04:49:14;21.90;;;18.87;;
16193;SDS011;8204;53.582;10.080;2024-03-07T04:51:40;25.30;;;21.80;;
16193;SDS011;8204;53.582;10.080;2024-03-07T04:54:06;22.10;;;19.77;;
16193;SDS011;8204;53.582;10.080;2024-03-07T04:56:32;21.33;;;19.23;;
16193;SDS011;8204;53.582;10.080;2024-03-07T04:58:57;22.63;;;17.43;;
16193;SDS011;8204;53.582;10.080;2024-03-07T05:01:23;21.03;;;18.97;;
16193;SDS011;8204;53.582;10.080;2024-03-07T05:03:48;21.07;;;18.97;;
16193;SDS011;8204;53.582;10.080;2024-03-07T05:06:14;20.00;;;17.80;;
16193;SDS011;8204;53.582;10.080;2024-03-07T05:08:42;20.47;;;17.57;;
16193;SDS011;8204;53.582;10.080;2024-03-07T05:11:07;23.37;;;18.67;;
16193;SDS011;8204;53.582;10.080;2024-03-07T05:13:33;22.47;;;17.23;;
16193;SDS011;8204;53.582;10.080;2024-03-07T05:15:58;22.60;;;17.97;;
16193;SDS011;8204;53.582;10.080;2024-03-07T05:18:25;19.30;;;17.10;;
16193;SDS011;8204;53.582;10.080;2024-03-07T05:20:50;23.23;;;18.30;;
16193;SDS011;8204;53.582;10.080;2024-03-07T05:23:16;24.60;;;18.90;;
16193;SDS011;8204;53.582;10.080;2024-03-07T05:25:41;22.73;;;18.20;;
16193;SDS011;8204;53.582;10.080;2024-03-07T05:28:10;20.77;;;17.53;;
16193;SDS011;8204;53.582;10.080;2024-03-07T05:30:36;18.23;;;16.27;;
16193;SDS011;8204;53.582;10.080;2024-03-07T05:33:02;23.33;;;20.90;;
16193;SDS011;8204;53.582;10.080;2024-03-07T05:35:28;22.47;;;20.20;;
16193;SDS011;8204;53.582;10.080;2024-03-07T05:37:56;22.80;;;20.43;;
16193;SDS011;8204;53.582;10.080;2024-03-07T05:40:22;19.33;;;17.40;;
16193;SDS011;8204;53.582;10.080;2024-03-07T05:42:48;19.30;;;17.30;;
16193;SDS011;8204;53.582;10.080;2024-03-07T05:45:13;20.93;;;17.13;;
16193;SDS011;8204;53.582;10.080;2024-03-07T05:47:40;19.87;;;17.87;;
16193;SDS011;8204;53.582;10.080;2024-03-07T05:50:05;20.27;;;18.17;;
16193;SDS011;8204;53.582;10.080;2024-03-07T05:52:32;18.13;;;16.43;;
16193;SDS011;8204;53.582;10.080;2024-03-07T05:54:58;20.33;;;18.33;;
16193;SDS011;8204;53.582;10.080;2024-03-07T05:57:23;19.13;;;16.90;;
16193;SDS011;8204;53.582;10.080;2024-03-07T05:59:50;19.93;;;18.00;;
16193;SDS011;8204;53.582;10.080;2024-03-07T06:02:15;22.03;;;18.53;;
16193;SDS011;8204;53.582;10.080;2024-03-07T06:04:42;19.83;;;16.50;;
16193;SDS011;8204;53.582;10.080;2024-03-07T06:07:08;19.73;;;18.03;;
16193;SDS011;8204;53.582;10.080;2024-03-07T06:09:36;21.90;;;19.60;;
16193;SDS011;8204;53.582;10.080;2024-03-07T06:12:03;22.17;;;19.97;;
16193;SDS011;8204;53.582;10.080;2024-03-07T06:14:29;18.87;;;17.00;;
16193;SDS011;8204;53.582;10.080;2024-03-07T06:16:55;22.40;;;20.17;;
16193;SDS011;8204;53.582;10.080;2024-03-07T06:19:23;22.53;;;19.13;;
16193;SDS011;8204;53.582;10.080;2024-03-07T06:21:48;20.47;;;18.47;;
16193;SDS011;8204;53.582;10.080;2024-03-07T06:24:14;20.90;;;18.83;;
16193;SDS011;8204;53.582;10.080;2024-03-07T06:26:40;20.67;;;18.57;;
16193;SDS011;8204;53.582;10.080;2024-03-07T06:29:08;19.73;;;17.80;;
16193;SDS011;8204;53.582;10.080;2024-03-07T06:31:37;21.93;;;18.57;;
16193;SDS011;8204;53.582;10.080;2024-03-07T06:34:02;19.70;;;17.70;;
16193;SDS011;8204;53.582;10.080;2024-03-07T06:36:28;21.70;;;19.53;;
16193;SDS011;8204;53.582;10.080;2024-03-07T06:38:54;21.90;;;19.80;;
16193;SDS011;8204;53.582;10.080;2024-03-07T06:41:20;23.00;;;20.77;;
16193;SDS011;8204;53.582;10.080;2024-03-07T06:43:45;20.37;;;18.37;;
16193;SDS011;8204;53.582;10.080;2024-03-07T06:46:11;22.50;;;20.10;;
16193;SDS011;8204;53.582;10.080;2024-03-07T06:48:41;21.17;;;18.97;;
16193;SDS011;8204;53.582;10.080;2024-03-07T06:51:07;20.80;;;18.23;;
16193;SDS011;8204;53.582;10.080;2024-03-07T06:53:32;19.83;;;17.73;;
16193;SDS011;8204;53.582;10.080;2024-03-07T06:55:58;22.07;;;19.87;;
16193;SDS011;8204;53.582;10.080;2024-03-07T06:58:23;23.50;;;19.03;;
16193;SDS011;8204;53.582;10.080;2024-03-07T07:00:49;21.83;;;19.73;;
16193;SDS011;8204;53.582;10.080;2024-03-07T07:03:20;22.23;;;19.93;;
16193;SDS011;8204;53.582;10.080;2024-03-07T07:05:47;23.07;;;20.63;;
16193;SDS011;8204;53.582;10.080;2024-03-07T07:08:13;21.77;;;19.53;;
16193;SDS011;8204;53.582;10.080;2024-03-07T07:10:39;23.10;;;19.10;;
16193;SDS011;8204;53.582;10.080;2024-03-07T07:13:08;18.40;;;16.70;;
16193;SDS011;8204;53.582;10.080;2024-03-07T07:15:35;19.50;;;17.50;;
16193;SDS011;8204;53.582;10.080;2024-03-07T07:18:02;20.73;;;18.53;;
16193;SDS011;8204;53.582;10.080;2024-03-07T07:20:29;21.07;;;18.30;;
16193;SDS011;8204;53.582;10.080;2024-03-07T07:22:55;19.30;;;17.50;;
16193;SDS011;8204;53.582;10.080;2024-03-07T07:25:23;24.23;;;18.17;;
16193;SDS011;8204;53.582;10.080;2024-03-07T07:27:49;20.67;;;18.43;;
16193;SDS011;8204;53.582;10.080;2024-03-07T07:30:18;21.43;;;19.43;;
16193;SDS011;8204;53.582;10.080;2024-03-07T07:32:45;20.73;;;18.70;;
16193;SDS011;8204;53.582;10.080;2024-03-07T07:35:11;19.13;;;17.23;;
16193;SDS011;8204;53.582;10.080;2024-03-07T07:37:41;21.20;;;19.20;;
16193;SDS011;8204;53.582;10.080;2024-03-07T07:40:08;19.07;;;17.20;;
16193;SDS011;8204;53.582;10.080;2024-03-07T07:42:37;21.00;;;18.37;;
16193;SDS011;8204;53.582;10.080;2024-03-07T07:45:05;18.90;;;17.00;;
16193;SDS011;8204;53.582;10.080;2024-03-07T07:47:31;19.30;;;17.33;;
16193;SDS011;8204;53.582;10.080;2024-03-07T07:49:57;22.13;;;18.40;;
16193;SDS011;8204;53.582;10.080;2024-03-07T07:52:23;18.87;;;17.10;;
16193;SDS011;8204;53.582;10.080;2024-03-07T07:54:48;20.97;;;18.77;;
16193;SDS011;8204;53.582;10.080;2024-03-07T07:57:14;22.03;;;18.73;;
16193;SDS011;8204;53.582;10.080;2024-03-07T07:59:39;20.23;;;17.63;;
16193;SDS011;8204;53.582;10.080;2024-03-07T08:02:05;16.87;;;15.33;;
16193;SDS011;8204;53.582;10.080;2024-03-07T08:04:31;19.20;;;17.27;;
16193;SDS011;8204;53.582;10.080;2024-03-07T08:06:57;17.40;;;15.83;;
16193;SDS011;8204;53.582;10.080;2024-03-07T08:09:23;16.30;;;14.83;;
16193;SDS011;8204;53.582;10.080;2024-03-07T08:11:48;17.93;;;16.13;;
16193;SDS011;8204;53.582;10.080;2024-03-07T08:14:15;18.07;;;16.40;;
16193;SDS011;8204;53.582;10.080;2024-03-07T08:16:40;17.77;;;16.03;;
16193;SDS011;8204;53.582;10.080;2024-03-07T08:19:06;16.40;;;14.70;;
16193;SDS011;8204;53.582;10.080;2024-03-07T08:21:32;17.73;;;15.93;;
16193;SDS011;8204;53.582;10.080;2024-03-07T08:23:58;18.70;;;15.23;;
16193;SDS011;8204;53.582;10.080;2024-03-07T08:26:23;17.97;;;16.07;;
16193;SDS011;8204;53.582;10.080;2024-03-07T08:28:48;17.87;;;15.97;;
16193;SDS011;8204;53.582;10.080;2024-03-07T08:31:14;18.57;;;15.53;;
16193;SDS011;8204;53.582;10.080;2024-03-07T08:33:39;15.57;;;14.10;;
16193;SDS011;8204;53.582;10.080;2024-03-07T08:36:05;16.30;;;14.60;;
16193;SDS011;8204;53.582;10.080;2024-03-07T08:38:32;18.37;;;15.53;;
16193;SDS011;8204;53.582;10.080;2024-03-07T08:40:58;17.33;;;15.83;;
16193;SDS011;8204;53.582;10.080;2024-03-07T08:43:25;16.60;;;15.00;;
16193;SDS011;8204;53.582;10.080;2024-03-07T08:45:52;16.33;;;14.73;;
16193;SDS011;8204;53.582;10.080;2024-03-07T08:48:18;17.87;;;16.17;;
16193;SDS011;8204;53.582;10.080;2024-03-07T08:50:44;18.17;;;16.43;;
16193;SDS011;8204;53.582;10.080;2024-03-07T08:53:10;17.10;;;15.40;;
16193;SDS011;8204;53.582;10.080;2024-03-07T08:55:35;22.23;;;15.97;;
16193;SDS011;8204;53.582;10.080;2024-03-07T08:58:01;17.47;;;15.80;;
16193;SDS011;8204;53.582;10.080;2024-03-07T09:00:27;21.03;;;16.90;;
16193;SDS011;8204;53.582;10.080;2024-03-07T09:02:57;18.37;;;16.27;;
16193;SDS011;8204;53.582;10.080;2024-03-07T09:05:23;19.63;;;16.37;;
16193;SDS011;8204;53.582;10.080;2024-03-07T09:07:50;21.80;;;16.90;;
16193;SDS011;8204;53.582;10.080;2024-03-07T09:10:17;19.03;;;16.97;;
16193;SDS011;8204;53.582;10.080;2024-03-07T09:12:43;22.60;;;18.67;;
16193;SDS011;8204;53.582;10.080;2024-03-07T09:15:09;20.63;;;17.90;;
16193;SDS011;8204;53.582;10.080;2024-03-07T09:17:38;21.10;;;17.27;;
16193;SDS011;8204;53.582;10.080;2024-03-07T09:20:07;21.10;;;17.50;;
16193;SDS011;8204;53.582;10.080;2024-03-07T09:22:34;21.00;;;18.77;;
16193;SDS011;8204;53.582;10.080;2024-03-07T09:25:00;20.80;;;18.33;;
16193;SDS011;8204;53.582;10.080;2024-03-07T09:27:26;23.60;;;19.27;;
16193;SDS011;8204;53.582;10.080;2024-03-07T09:29:51;25.07;;;20.03;;
16193;SDS011;8204;53.582;10.080;2024-03-07T09:32:17;23.77;;;21.23;;
16193;SDS011;8204;53.582;10.080;2024-03-07T09:34:47;26.53;;;20.03;;
16193;SDS011;8204;53.582;10.080;2024-03-07T09:37:12;22.77;;;20.10;;
16193;SDS011;8204;53.582;10.080;2024-03-07T09:39:38;23.07;;;19.37;;
16193;SDS011;8204;53.582;10.080;2024-03-07T09:42:07;22.77;;;20.07;;
16193;SDS011;8204;53.582;10.080;2024-03-07T09:44:38;23.20;;;20.83;;
16193;SDS011;8204;53.582;10.080;2024-03-07T09:47:04;24.30;;;20.90;;
16193;SDS011;8204;53.582;10.080;2024-03-07T09:49:30;22.20;;;19.57;;
16193;SDS011;8204;53.582;10.080;2024-03-07T09:51:58;24.47;;;20.00;;
16193;SDS011;8204;53.582;10.080;2024-03-07T09:54:26;24.10;;;20.70;;
16193;SDS011;8204;53.582;10.080;2024-03-07T09:56:53;22.03;;;19.63;;
16193;SDS011;8204;53.582;10.080;2024-03-07T09:59:21;20.47;;;18.53;;
16193;SDS011;8204;53.582;10.080;2024-03-07T10:01:54;23.53;;;20.83;;
16193;SDS011;8204;53.582;10.080;2024-03-07T10:04:27;22.23;;;19.53;;
16193;SDS011;8204;53.582;10.080;2024-03-07T10:06:55;25.43;;;21.43;;
16193;SDS011;8204;53.582;10.080;2024-03-07T10:09:22;26.60;;;20.63;;
16193;SDS011;8204;53.582;10.080;2024-03-07T10:11:56;21.83;;;19.50;;
16193;SDS011;8204;53.582;10.080;2024-03-07T10:14:24;26.70;;;22.23;;
16193;SDS011;8204;53.582;10.080;2024-03-07T10:16:54;23.87;;;20.57;;
16193;SDS011;8204;53.582;10.080;2024-03-07T10:19:22;22.40;;;20.20;;
16193;SDS011;8204;53.582;10.080;2024-03-07T10:21:48;28.90;;;23.77;;
16193;SDS011;8204;53.582;10.080;2024-03-07T10:24:14;24.23;;;21.67;;
16193;SDS011;8204;53.582;10.080;2024-03-07T10:26:39;23.17;;;20.83;;
16193;SDS011;8204;53.582;10.080;2024-03-07T10:29:05;29.27;;;22.57;;
16193;SDS011;8204;53.582;10.080;2024-03-07T10:31:34;26.43;;;22.70;;
16193;SDS011;8204;53.582;10.080;2024-03-07T10:34:02;24.57;;;21.60;;
16193;SDS011;8204;53.582;10.080;2024-03-07T10:36:29;27.40;;;22.90;;
16193;SDS011;8204;53.582;10.080;2024-03-07T10:39:01;24.07;;;21.57;;
16193;SDS011;8204;53.582;10.080;2024-03-07T10:41:46;21.80;;;19.70;;
16193;SDS011;8204;53.582;10.080;2024-03-07T10:46:50;23.10;;;20.70;;
16193;SDS011;8204;53.582;10.080;2024-03-07T10:49:18;21.87;;;19.23;;
16193;SDS011;8204;53.582;10.080;2024-03-07T10:51:48;23.27;;;20.07;;
16193;SDS011;8204;53.582;10.080;2024-03-07T10:54:33;21.97;;;19.67;;
16193;SDS011;8204;53.582;10.080;2024-03-07T10:57:16;22.67;;;19.43;;
16193;SDS011;8204;53.582;10.080;2024-03-07T10:59:57;20.50;;;18.40;;
16193;SDS011;8204;53.582;10.080;2024-03-07T11:05:10;22.77;;;20.43;;
16193;SDS011;8204;53.582;10.080;2024-03-07T11:07:38;22.23;;;19.87;;
16193;SDS011;8204;53.582;10.080;2024-03-07T11:10:04;23.63;;;21.23;;
16193;SDS011;8204;53.582;10.080;2024-03-07T11:12:36;21.60;;;19.40;;
16193;SDS011;8204;53.582;10.080;2024-03-07T11:15:04;21.93;;;19.73;;
16193;SDS011;8204;53.582;10.080;2024-03-07T11:17:31;23.13;;;20.00;;
16193;SDS011;8204;53.582;10.080;2024-03-07T11:22:52;25.10;;;20.43;;
16193;SDS011;8204;53.582;10.080;2024-03-07T11:25:24;25.03;;;20.63;;
16193;SDS011;8204;53.582;10.080;2024-03-07T11:30:21;25.27;;;21.37;;
16193;SDS011;8204;53.582;10.080;2024-03-07T11:32:48;27.63;;;22.40;;
16193;SDS011;8204;53.582;10.080;2024-03-07T11:35:21;23.07;;;20.60;;
16193;SDS011;8204;53.582;10.080;2024-03-07T11:37:57;24.33;;;21.47;;
16193;SDS011;8204;53.582;10.080;2024-03-07T11:42:50;24.27;;;21.80;;
16193;SDS011;8204;53.582;10.080;2024-03-07T11:45:17;23.13;;;20.90;;
16193;SDS011;8204;53.582;10.080;2024-03-07T11:47:51;26.23;;;21.53;;
16193;SDS011;8204;53.582;10.080;2024-03-07T11:50:34;27.93;;;22.40;;
16193;SDS011;8204;53.582;10.080;2024-03-07T11:53:00;22.30;;;19.93;;
16193;SDS011;8204;53.582;10.080;2024-03-07T11:55:26;24.17;;;21.70;;
16193;SDS011;8204;53.582;10.080;2024-03-07T11:57:59;25.93;;;21.67;;
16193;SDS011;8204;53.582;10.080;2024-03-07T12:00:27;22.93;;;20.53;;
16193;SDS011;8204;53.582;10.080;2024-03-07T12:02:56;27.80;;;23.90;;
16193;SDS011;8204;53.582;10.080;2024-03-07T12:05:22;27.97;;;22.50;;
16193;SDS011;8204;53.582;10.080;2024-03-07T12:07:48;23.30;;;20.73;;
16193;SDS011;8204;53.582;10.080;2024-03-07T12:10:15;24.93;;;22.33;;
16193;SDS011;8204;53.582;10.080;2024-03-07T12:12:40;24.57;;;21.57;;
16193;SDS011;8204;53.582;10.080;2024-03-07T12:15:08;25.63;;;22.30;;
16193;SDS011;8204;53.582;10.080;2024-03-07T12:17:44;25.57;;;22.87;;
16193;SDS011;8204;53.582;10.080;2024-03-07T12:20:11;25.10;;;21.37;;
16193;SDS011;8204;53.582;10.080;2024-03-07T12:22:50;32.47;;;23.87;;
16193;SDS011;8204;53.582;10.080;2024-03-07T12:25:22;24.37;;;21.97;;
16193;SDS011;8204;53.582;10.080;2024-03-07T12:33:10;25.97;;;22.67;;
16193;SDS011;8204;53.582;10.080;2024-03-07T12:35:39;25.27;;;22.63;;
16193;SDS011;8204;53.582;10.080;2024-03-07T12:38:07;26.47;;;23.77;;
16193;SDS011;8204;53.582;10.080;2024-03-07T12:40:35;32.20;;;24.53;;
16193;SDS011;8204;53.582;10.080;2024-03-07T12:43:02;27.30;;;24.40;;
16193;SDS011;8204;53.582;10.080;2024-03-07T12:45:37;26.50;;;23.73;;
16193;SDS011;8204;53.582;10.080;2024-03-07T12:48:08;25.33;;;22.67;;
16193;SDS011;8204;53.582;10.080;2024-03-07T12:50:35;28.53;;;23.60;;
16193;SDS011;8204;53.582;10.080;2024-03-07T12:53:01;26.90;;;24.13;;
16193;SDS011;8204;53.582;10.080;2024-03-07T12:55:30;26.93;;;23.87;;
16193;SDS011;8204;53.582;10.080;2024-03-07T12:57:56;27.33;;;24.47;;
16193;SDS011;8204;53.582;10.080;2024-03-07T13:00:22;26.43;;;23.73;;
16193;SDS011;8204;53.582;10.080;2024-03-07T13:02:47;25.50;;;23.03;;
16193;SDS011;8204;53.582;10.080;2024-03-07T13:05:14;26.67;;;24.00;;
16193;SDS011;8204;53.582;10.080;2024-03-07T13:07:46;25.47;;;22.83;;
16193;SDS011;8204;53.582;10.080;2024-03-07T13:10:13;29.63;;;24.53;;
16193;SDS011;8204;53.582;10.080;2024-03-07T13:12:41;27.00;;;23.57;;
16193;SDS011;8204;53.582;10.080;2024-03-07T13:15:09;29.47;;;23.97;;
16193;SDS011;8204;53.582;10.080;2024-03-07T13:17:35;26.67;;;23.77;;
16193;SDS011;8204;53.582;10.080;2024-03-07T13:20:01;26.07;;;23.43;;
16193;SDS011;8204;53.582;10.080;2024-03-07T13:22:26;26.93;;;24.13;;
16193;SDS011;8204;53.582;10.080;2024-03-07T13:24:52;27.27;;;23.87;;
16193;SDS011;8204;53.582;10.080;2024-03-07T13:27:18;26.27;;;23.43;;
16193;SDS011;8204;53.582;10.080;2024-03-07T13:29:50;29.47;;;25.67;;
16193;SDS011;8204;53.582;10.080;2024-03-07T13:32:16;27.80;;;25.10;;
16193;SDS011;8204;53.582;10.080;2024-03-07T13:34:41;28.30;;;25.47;;
16193;SDS011;8204;53.582;10.080;2024-03-07T13:37:07;25.03;;;22.53;;
16193;SDS011;8204;53.582;10.080;2024-03-07T13:39:35;28.20;;;24.73;;
16193;SDS011;8204;53.582;10.080;2024-03-07T13:42:00;26.90;;;24.13;;
16193;SDS011;8204;53.582;10.080;2024-03-07T13:44:26;25.33;;;22.63;;
16193;SDS011;8204;53.582;10.080;2024-03-07T13:46:53;26.53;;;23.93;;
16193;SDS011;8204;53.582;10.080;2024-03-07T13:49:20;25.47;;;22.87;;
16193;SDS011;8204;53.582;10.080;2024-03-07T13:51:48;26.70;;;23.47;;
16193;SDS011;8204;53.582;10.080;2024-03-07T13:54:18;27.03;;;24.13;;
16193;SDS011;8204;53.582;10.080;2024-03-07T14:05:52;31.70;;;25.90;;
16193;SDS011;8204;53.582;10.080;2024-03-07T14:08:32;28.17;;;25.23;;
16193;SDS011;8204;53.582;10.080;2024-03-07T14:14:41;26.67;;;23.97;;
16193;SDS011;8204;53.582;10.080;2024-03-07T14:17:31;26.97;;;24.17;;
16193;SDS011;8204;53.582;10.080;2024-03-07T14:23:38;27.00;;;24.13;;
16193;SDS011;8204;53.582;10.080;2024-03-07T14:26:13;25.53;;;22.70;;
16193;SDS011;8204;53.582;10.080;2024-03-07T14:31:51;28.43;;;25.50;;
16193;SDS011;8204;53.582;10.080;2024-03-07T14:34:24;28.53;;;25.20;;
16193;SDS011;8204;53.582;10.080;2024-03-07T14:37:11;26.13;;;22.90;;
16193;SDS011;8204;53.582;10.080;2024-03-07T14:39:46;26.67;;;24.07;;
16193;SDS011;8204;53.582;10.080;2024-03-07T14:42:15;25.23;;;21.83;;
16193;SDS011;8204;53.582;10.080;2024-03-07T14:44:42;23.73;;;21.40;;
16193;SDS011;8204;53.582;10.080;2024-03-07T14:47:11;24.90;;;22.17;;
16193;SDS011;8204;53.582;10.080;2024-03-07T14:49:37;24.90;;;22.40;;
16193;SDS011;8204;53.582;10.080;2024-03-07T14:52:03;22.23;;;19.93;;
16193;SDS011;8204;53.582;10.080;2024-03-07T14:54:35;26.87;;;21.73;;
16193;SDS011;8204;53.582;10.080;2024-03-07T14:57:03;25.03;;;21.63;;
16193;SDS011;8204;53.582;10.080;2024-03-07T14:59:29;22.53;;;20.33;;
16193;SDS011;8204;53.582;10.080;2024-03-07T15:01:55;21.43;;;19.13;;
16193;SDS011;8204;53.582;10.080;2024-03-07T15:04:23;21.93;;;19.67;;